sensor_id;sensor_type;location;lat;lon;timestamp;temperature;humidity
42245;DHT22;27912;51.828;5.688;2022-12-07T00:01:08;3.60;99.90
42245;DHT22;27912;51.828;5.688;2022-12-07T00:03:34;3.60;99.90
42245;DHT22;27912;51.828;5.688;2022-12-07T00:06:01;3.60;99.90
42245;DHT22;27912;51.828;5.688;2022-12-07T00:08:27;3.50;99.90
42245;DHT22;27912;51.828;5.688;2022-12-07T00:10:52;3.50;99.90
42245;DHT22;27912;51.828;5.688;2022-12-07T00:13:18;3.50;99.90
42245;DHT22;27912;51.828;5.688;2022-12-07T00:15:44;3.50;99.90
42245;DHT22;27912;51.828;5.688;2022-12-07T00:18:10;3.60;99.90
42245;DHT22;27912;51.828;5.688;2022-12-07T00:20:35;3.50;99.90
42245;DHT22;27912;51.828;5.688;2022-12-07T00:23:01;3.50;99.90
42245;DHT22;27912;51.828;5.688;2022-12-07T00:25:26;3.50;99.90
42245;DHT22;27912;51.828;5.688;2022-12-07T00:27:53;3.50;99.90
42245;DHT22;27912;51.828;5.688;2022-12-07T00:30:20;3.50;99.90
42245;DHT22;27912;51.828;5.688;2022-12-07T00:32:46;3.50;99.90
42245;DHT22;27912;51.828;5.688;2022-12-07T00:35:11;3.50;99.90
42245;DHT22;27912;51.828;5.688;2022-12-07T00:37:37;3.40;99.90
42245;DHT22;27912;51.828;5.688;2022-12-07T00:40:03;3.40;99.90
42245;DHT22;27912;51.828;5.688;2022-12-07T00:42:28;3.40;99.90
42245;DHT22;27912;51.828;5.688;2022-12-07T00:44:54;3.40;99.90
42245;DHT22;27912;51.828;5.688;2022-12-07T00:47:19;3.30;99.90
42245;DHT22;27912;51.828;5.688;2022-12-07T00:49:45;3.30;99.90
42245;DHT22;27912;51.828;5.688;2022-12-07T00:52:10;3.30;99.90
42245;DHT22;27912;51.828;5.688;2022-12-07T00:54:36;3.20;99.90
42245;DHT22;27912;51.828;5.688;2022-12-07T00:57:01;3.20;99.90
42245;DHT22;27912;51.828;5.688;2022-12-07T00:59:27;3.20;99.90
42245;DHT22;27912;51.828;5.688;2022-12-07T01:01:52;3.10;99.90
42245;DHT22;27912;51.828;5.688;2022-12-07T01:04:18;3.10;99.90
42245;DHT22;27912;51.828;5.688;2022-12-07T01:06:43;3.10;99.90
42245;DHT22;27912;51.828;5.688;2022-12-07T01:09:09;3.10;99.90
42245;DHT22;27912;51.828;5.688;2022-12-07T01:11:34;3.10;99.90
42245;DHT22;27912;51.828;5.688;2022-12-07T01:14:00;3.00;99.90
42245;DHT22;27912;51.828;5.688;2022-12-07T01:16:27;3.00;99.90
42245;DHT22;27912;51.828;5.688;2022-12-07T01:18:54;2.90;99.90
42245;DHT22;27912;51.828;5.688;2022-12-07T01:21:26;2.80;99.90
42245;DHT22;27912;51.828;5.688;2022-12-07T01:23:52;2.70;99.90
42245;DHT22;27912;51.828;5.688;2022-12-07T01:26:21;2.70;99.90
42245;DHT22;27912;51.828;5.688;2022-12-07T01:28:47;2.60;99.90
42245;DHT22;27912;51.828;5.688;2022-12-07T01:31:20;2.60;99.90
42245;DHT22;27912;51.828;5.688;2022-12-07T01:33:48;2.50;99.90
42245;DHT22;27912;51.828;5.688;2022-12-07T01:36:26;2.50;99.90
42245;DHT22;27912;51.828;5.688;2022-12-07T01:38:55;2.40;99.90
42245;DHT22;27912;51.828;5.688;2022-12-07T01:41:22;2.50;99.90
42245;DHT22;27912;51.828;5.688;2022-12-07T01:47:01;2.40;99.90
42245;DHT22;27912;51.828;5.688;2022-12-07T01:54:42;2.40;99.90
42245;DHT22;27912;51.828;5.688;2022-12-07T01:57:09;2.30;99.90
42245;DHT22;27912;51.828;5.688;2022-12-07T01:59:35;2.30;99.90
42245;DHT22;27912;51.828;5.688;2022-12-07T02:02:02;2.30;99.90
42245;DHT22;27912;51.828;5.688;2022-12-07T02:04:29;2.30;99.90
42245;DHT22;27912;51.828;5.688;2022-12-07T02:06:56;2.30;99.90
42245;DHT22;27912;51.828;5.688;2022-12-07T02:09:23;2.40;99.90
42245;DHT22;27912;51.828;5.688;2022-12-07T02:11:49;2.40;99.90
42245;DHT22;27912;51.828;5.688;2022-12-07T02:14:14;2.40;99.90
42245;DHT22;27912;51.828;5.688;2022-12-07T02:17:11;2.40;99.90
42245;DHT22;27912;51.828;5.688;2022-12-07T02:20:11;2.40;99.90
42245;DHT22;27912;51.828;5.688;2022-12-07T02:23:06;2.40;99.90
42245;DHT22;27912;51.828;5.688;2022-12-07T02:26:07;2.50;99.90
42245;DHT22;27912;51.828;5.688;2022-12-07T02:29:03;2.40;99.90
42245;DHT22;27912;51.828;5.688;2022-12-07T02:31:33;2.40;99.90
42245;DHT22;27912;51.828;5.688;2022-12-07T02:34:08;2.40;99.90
42245;DHT22;27912;51.828;5.688;2022-12-07T02:36:39;2.30;99.90
42245;DHT22;27912;51.828;5.688;2022-12-07T02:41:43;2.30;99.90
42245;DHT22;27912;51.828;5.688;2022-12-07T02:44:15;2.30;99.90
42245;DHT22;27912;51.828;5.688;2022-12-07T02:46:43;2.30;99.90
42245;DHT22;27912;51.828;5.688;2022-12-07T02:49:10;2.20;99.90
42245;DHT22;27912;51.828;5.688;2022-12-07T02:51:40;2.20;99.90
42245;DHT22;27912;51.828;5.688;2022-12-07T02:54:12;2.20;99.90
42245;DHT22;27912;51.828;5.688;2022-12-07T03:08:11;2.20;99.90
42245;DHT22;27912;51.828;5.688;2022-12-07T03:16:17;2.40;99.90
42245;DHT22;27912;51.828;5.688;2022-12-07T03:18:55;2.40;99.90
42245;DHT22;27912;51.828;5.688;2022-12-07T03:21:27;2.40;99.90
42245;DHT22;27912;51.828;5.688;2022-12-07T03:23:56;2.40;99.90
42245;DHT22;27912;51.828;5.688;2022-12-07T03:26:26;2.50;99.90
42245;DHT22;27912;51.828;5.688;2022-12-07T03:28:59;2.60;99.90
42245;DHT22;27912;51.828;5.688;2022-12-07T03:31:31;2.60;99.90
42245;DHT22;27912;51.828;5.688;2022-12-07T03:34:18;2.60;99.90
42245;DHT22;27912;51.828;5.688;2022-12-07T03:36:48;2.70;99.90
42245;DHT22;27912;51.828;5.688;2022-12-07T03:39:25;2.70;99.90
42245;DHT22;27912;51.828;5.688;2022-12-07T03:41:54;2.80;99.90
42245;DHT22;27912;51.828;5.688;2022-12-07T03:44:20;2.80;99.90
42245;DHT22;27912;51.828;5.688;2022-12-07T03:49:48;2.90;99.90
42245;DHT22;27912;51.828;5.688;2022-12-07T03:52:21;3.00;99.90
42245;DHT22;27912;51.828;5.688;2022-12-07T03:55:16;2.90;99.90
42245;DHT22;27912;51.828;5.688;2022-12-07T03:57:45;3.00;99.90
42245;DHT22;27912;51.828;5.688;2022-12-07T04:00:12;3.00;99.90
42245;DHT22;27912;51.828;5.688;2022-12-07T04:02:39;3.10;99.90
42245;DHT22;27912;51.828;5.688;2022-12-07T04:05:05;3.10;99.90
42245;DHT22;27912;51.828;5.688;2022-12-07T04:07:30;3.10;99.90
42245;DHT22;27912;51.828;5.688;2022-12-07T04:09:56;3.10;99.90
42245;DHT22;27912;51.828;5.688;2022-12-07T04:12:22;3.10;99.90
42245;DHT22;27912;51.828;5.688;2022-12-07T04:14:48;3.20;99.90
42245;DHT22;27912;51.828;5.688;2022-12-07T04:17:13;3.20;99.90
42245;DHT22;27912;51.828;5.688;2022-12-07T04:19:39;3.20;99.90
42245;DHT22;27912;51.828;5.688;2022-12-07T04:22:07;3.20;99.90
42245;DHT22;27912;51.828;5.688;2022-12-07T04:24:33;3.20;99.90
42245;DHT22;27912;51.828;5.688;2022-12-07T04:26:59;3.20;99.90
42245;DHT22;27912;51.828;5.688;2022-12-07T04:29:25;3.30;99.90
42245;DHT22;27912;51.828;5.688;2022-12-07T04:31:51;3.20;99.90
42245;DHT22;27912;51.828;5.688;2022-12-07T04:34:18;3.20;99.90
42245;DHT22;27912;51.828;5.688;2022-12-07T04:36:45;3.20;99.90
42245;DHT22;27912;51.828;5.688;2022-12-07T04:39:25;3.20;99.90
42245;DHT22;27912;51.828;5.688;2022-12-07T04:41:51;3.20;99.90
42245;DHT22;27912;51.828;5.688;2022-12-07T04:44:18;3.20;99.90
42245;DHT22;27912;51.828;5.688;2022-12-07T04:46:44;3.10;99.90
42245;DHT22;27912;51.828;5.688;2022-12-07T04:49:12;3.10;99.90
42245;DHT22;27912;51.828;5.688;2022-12-07T04:51:37;3.10;99.90
42245;DHT22;27912;51.828;5.688;2022-12-07T04:54:03;3.10;99.90
42245;DHT22;27912;51.828;5.688;2022-12-07T04:56:29;3.10;99.90
42245;DHT22;27912;51.828;5.688;2022-12-07T04:58:55;3.20;99.90
42245;DHT22;27912;51.828;5.688;2022-12-07T05:01:21;3.20;99.90
42245;DHT22;27912;51.828;5.688;2022-12-07T05:03:47;3.20;99.90
42245;DHT22;27912;51.828;5.688;2022-12-07T05:06:13;3.30;99.90
42245;DHT22;27912;51.828;5.688;2022-12-07T05:08:40;3.30;99.90
42245;DHT22;27912;51.828;5.688;2022-12-07T05:11:06;3.30;99.90
42245;DHT22;27912;51.828;5.688;2022-12-07T05:13:32;3.30;99.90
42245;DHT22;27912;51.828;5.688;2022-12-07T05:15:58;3.30;99.90
42245;DHT22;27912;51.828;5.688;2022-12-07T05:18:24;3.30;99.90
42245;DHT22;27912;51.828;5.688;2022-12-07T05:20:50;3.30;99.90
42245;DHT22;27912;51.828;5.688;2022-12-07T05:23:16;3.30;99.90
42245;DHT22;27912;51.828;5.688;2022-12-07T05:25:42;3.30;99.90
42245;DHT22;27912;51.828;5.688;2022-12-07T05:28:08;3.30;99.90
42245;DHT22;27912;51.828;5.688;2022-12-07T05:30:33;3.30;99.90
42245;DHT22;27912;51.828;5.688;2022-12-07T05:32:59;3.30;99.90
42245;DHT22;27912;51.828;5.688;2022-12-07T05:35:24;3.30;99.90
42245;DHT22;27912;51.828;5.688;2022-12-07T05:37:50;3.30;99.90
42245;DHT22;27912;51.828;5.688;2022-12-07T05:40:16;3.20;99.90
42245;DHT22;27912;51.828;5.688;2022-12-07T05:42:42;3.20;99.90
42245;DHT22;27912;51.828;5.688;2022-12-07T05:45:09;3.20;99.90
42245;DHT22;27912;51.828;5.688;2022-12-07T05:47:35;3.30;99.90
42245;DHT22;27912;51.828;5.688;2022-12-07T05:50:01;3.30;99.90
42245;DHT22;27912;51.828;5.688;2022-12-07T05:52:26;3.30;99.90
42245;DHT22;27912;51.828;5.688;2022-12-07T05:54:52;3.30;99.90
42245;DHT22;27912;51.828;5.688;2022-12-07T05:57:18;3.30;99.90
42245;DHT22;27912;51.828;5.688;2022-12-07T05:59:44;3.30;99.90
42245;DHT22;27912;51.828;5.688;2022-12-07T06:02:14;3.40;99.90
42245;DHT22;27912;51.828;5.688;2022-12-07T06:04:44;3.30;99.90
42245;DHT22;27912;51.828;5.688;2022-12-07T06:07:12;3.30;99.90
42245;DHT22;27912;51.828;5.688;2022-12-07T06:09:38;3.30;99.90
42245;DHT22;27912;51.828;5.688;2022-12-07T06:12:04;3.30;99.90
42245;DHT22;27912;51.828;5.688;2022-12-07T06:14:48;3.20;99.90
42245;DHT22;27912;51.828;5.688;2022-12-07T06:17:14;3.20;99.90
42245;DHT22;27912;51.828;5.688;2022-12-07T06:19:40;3.10;99.90
42245;DHT22;27912;51.828;5.688;2022-12-07T06:22:06;3.10;99.90
42245;DHT22;27912;51.828;5.688;2022-12-07T06:24:33;3.10;99.90
42245;DHT22;27912;51.828;5.688;2022-12-07T06:26:59;3.10;99.90
42245;DHT22;27912;51.828;5.688;2022-12-07T06:29:25;3.10;99.90
42245;DHT22;27912;51.828;5.688;2022-12-07T06:31:50;3.20;99.90
42245;DHT22;27912;51.828;5.688;2022-12-07T06:34:18;3.10;99.90
42245;DHT22;27912;51.828;5.688;2022-12-07T06:36:45;3.10;99.90
42245;DHT22;27912;51.828;5.688;2022-12-07T06:39:11;3.10;99.90
42245;DHT22;27912;51.828;5.688;2022-12-07T06:41:37;3.10;99.90
42245;DHT22;27912;51.828;5.688;2022-12-07T06:44:04;3.20;99.90
42245;DHT22;27912;51.828;5.688;2022-12-07T06:46:30;3.20;99.90
42245;DHT22;27912;51.828;5.688;2022-12-07T06:48:59;3.20;99.90
42245;DHT22;27912;51.828;5.688;2022-12-07T06:51:45;3.10;99.90
42245;DHT22;27912;51.828;5.688;2022-12-07T06:54:13;3.10;99.90
42245;DHT22;27912;51.828;5.688;2022-12-07T06:56:39;3.10;99.90
42245;DHT22;27912;51.828;5.688;2022-12-07T06:59:06;3.00;99.90
42245;DHT22;27912;51.828;5.688;2022-12-07T07:01:32;3.00;99.90
42245;DHT22;27912;51.828;5.688;2022-12-07T07:03:58;2.90;99.90
42245;DHT22;27912;51.828;5.688;2022-12-07T07:06:24;2.80;99.90
42245;DHT22;27912;51.828;5.688;2022-12-07T07:08:50;2.70;99.90
42245;DHT22;27912;51.828;5.688;2022-12-07T07:11:16;2.70;99.90
42245;DHT22;27912;51.828;5.688;2022-12-07T07:13:42;2.60;99.90
42245;DHT22;27912;51.828;5.688;2022-12-07T07:16:08;2.60;99.90
42245;DHT22;27912;51.828;5.688;2022-12-07T07:18:34;2.50;99.90
42245;DHT22;27912;51.828;5.688;2022-12-07T07:21:00;2.50;99.90
42245;DHT22;27912;51.828;5.688;2022-12-07T07:23:26;2.40;99.90
42245;DHT22;27912;51.828;5.688;2022-12-07T07:25:51;2.40;99.90
42245;DHT22;27912;51.828;5.688;2022-12-07T07:28:17;2.30;99.90
42245;DHT22;27912;51.828;5.688;2022-12-07T07:30:43;2.30;99.90
42245;DHT22;27912;51.828;5.688;2022-12-07T07:33:09;2.20;99.90
42245;DHT22;27912;51.828;5.688;2022-12-07T07:35:35;2.20;99.90
42245;DHT22;27912;51.828;5.688;2022-12-07T07:38:01;2.20;99.90
42245;DHT22;27912;51.828;5.688;2022-12-07T07:40:27;2.20;99.90
42245;DHT22;27912;51.828;5.688;2022-12-07T07:42:54;2.20;99.90
42245;DHT22;27912;51.828;5.688;2022-12-07T07:45:21;2.20;99.90
42245;DHT22;27912;51.828;5.688;2022-12-07T07:47:47;2.20;99.90
42245;DHT22;27912;51.828;5.688;2022-12-07T07:50:13;2.20;99.90
42245;DHT22;27912;51.828;5.688;2022-12-07T07:52:39;2.20;99.90
42245;DHT22;27912;51.828;5.688;2022-12-07T07:55:05;2.20;99.90
42245;DHT22;27912;51.828;5.688;2022-12-07T07:57:30;2.20;99.90
42245;DHT22;27912;51.828;5.688;2022-12-07T07:59:56;2.20;99.90
42245;DHT22;27912;51.828;5.688;2022-12-07T08:02:22;2.30;99.90
42245;DHT22;27912;51.828;5.688;2022-12-07T08:04:48;2.30;99.90
42245;DHT22;27912;51.828;5.688;2022-12-07T08:07:14;2.30;99.90
42245;DHT22;27912;51.828;5.688;2022-12-07T08:09:41;2.30;99.90
42245;DHT22;27912;51.828;5.688;2022-12-07T08:12:06;2.30;99.90
42245;DHT22;27912;51.828;5.688;2022-12-07T08:14:32;2.30;99.90
42245;DHT22;27912;51.828;5.688;2022-12-07T08:16:58;2.30;99.90
42245;DHT22;27912;51.828;5.688;2022-12-07T08:19:23;2.30;99.90
42245;DHT22;27912;51.828;5.688;2022-12-07T08:21:49;2.30;99.90
42245;DHT22;27912;51.828;5.688;2022-12-07T08:24:14;2.30;99.90
42245;DHT22;27912;51.828;5.688;2022-12-07T08:26:41;2.30;99.90
42245;DHT22;27912;51.828;5.688;2022-12-07T08:29:06;2.40;99.90
42245;DHT22;27912;51.828;5.688;2022-12-07T08:31:32;2.40;99.90
42245;DHT22;27912;51.828;5.688;2022-12-07T08:33:58;2.40;99.90
42245;DHT22;27912;51.828;5.688;2022-12-07T08:36:23;2.40;99.90
42245;DHT22;27912;51.828;5.688;2022-12-07T08:38:49;2.50;99.90
42245;DHT22;27912;51.828;5.688;2022-12-07T08:41:15;2.50;99.90
42245;DHT22;27912;51.828;5.688;2022-12-07T08:43:41;2.50;99.90
42245;DHT22;27912;51.828;5.688;2022-12-07T08:46:23;2.60;99.90
42245;DHT22;27912;51.828;5.688;2022-12-07T08:48:54;2.70;99.90
42245;DHT22;27912;51.828;5.688;2022-12-07T08:51:21;2.70;99.90
42245;DHT22;27912;51.828;5.688;2022-12-07T08:53:48;2.80;99.90
42245;DHT22;27912;51.828;5.688;2022-12-07T08:56:15;2.80;99.90
42245;DHT22;27912;51.828;5.688;2022-12-07T08:58:41;2.90;99.90
42245;DHT22;27912;51.828;5.688;2022-12-07T09:01:06;3.00;99.90
42245;DHT22;27912;51.828;5.688;2022-12-07T09:03:32;3.10;99.90
42245;DHT22;27912;51.828;5.688;2022-12-07T09:05:58;3.10;99.90
42245;DHT22;27912;51.828;5.688;2022-12-07T09:08:32;3.10;99.90
42245;DHT22;27912;51.828;5.688;2022-12-07T09:10:58;3.20;99.90
42245;DHT22;27912;51.828;5.688;2022-12-07T09:13:24;3.20;99.90
42245;DHT22;27912;51.828;5.688;2022-12-07T09:15:49;3.20;99.90
42245;DHT22;27912;51.828;5.688;2022-12-07T09:18:15;3.30;99.90
42245;DHT22;27912;51.828;5.688;2022-12-07T09:20:40;3.40;99.90
42245;DHT22;27912;51.828;5.688;2022-12-07T09:23:07;3.50;99.90
42245;DHT22;27912;51.828;5.688;2022-12-07T09:25:33;3.70;99.90
42245;DHT22;27912;51.828;5.688;2022-12-07T09:27:59;3.90;99.90
42245;DHT22;27912;51.828;5.688;2022-12-07T09:30:26;4.00;99.90
42245;DHT22;27912;51.828;5.688;2022-12-07T09:32:55;4.10;99.90
42245;DHT22;27912;51.828;5.688;2022-12-07T09:35:22;4.20;99.90
42245;DHT22;27912;51.828;5.688;2022-12-07T09:37:48;4.30;99.90
42245;DHT22;27912;51.828;5.688;2022-12-07T09:40:15;4.40;99.90
42245;DHT22;27912;51.828;5.688;2022-12-07T09:42:44;4.40;99.90
42245;DHT22;27912;51.828;5.688;2022-12-07T09:45:15;4.50;99.90
42245;DHT22;27912;51.828;5.688;2022-12-07T09:47:41;4.60;99.90
42245;DHT22;27912;51.828;5.688;2022-12-07T09:50:15;4.60;99.90
42245;DHT22;27912;51.828;5.688;2022-12-07T09:52:43;4.60;99.90
42245;DHT22;27912;51.828;5.688;2022-12-07T09:55:15;4.70;99.90
42245;DHT22;27912;51.828;5.688;2022-12-07T09:57:41;4.80;99.90
42245;DHT22;27912;51.828;5.688;2022-12-07T10:00:14;4.80;99.90
42245;DHT22;27912;51.828;5.688;2022-12-07T10:02:43;4.80;99.90
42245;DHT22;27912;51.828;5.688;2022-12-07T10:05:20;4.80;99.90
42245;DHT22;27912;51.828;5.688;2022-12-07T10:07:46;4.90;99.90
42245;DHT22;27912;51.828;5.688;2022-12-07T10:10:24;4.90;99.90
42245;DHT22;27912;51.828;5.688;2022-12-07T10:13:14;4.90;99.90
42245;DHT22;27912;51.828;5.688;2022-12-07T10:18:41;5.00;99.90
42245;DHT22;27912;51.828;5.688;2022-12-07T10:21:18;5.00;99.90
42245;DHT22;27912;51.828;5.688;2022-12-07T10:27:00;5.10;99.90
42245;DHT22;27912;51.828;5.688;2022-12-07T10:29:36;5.00;99.90
42245;DHT22;27912;51.828;5.688;2022-12-07T10:32:35;5.10;99.90
42245;DHT22;27912;51.828;5.688;2022-12-07T10:35:25;5.20;99.90
42245;DHT22;27912;51.828;5.688;2022-12-07T10:37:53;5.30;99.90
42245;DHT22;27912;51.828;5.688;2022-12-07T10:40:33;5.30;99.90
42245;DHT22;27912;51.828;5.688;2022-12-07T10:45:27;5.60;99.90
42245;DHT22;27912;51.828;5.688;2022-12-07T10:50:37;5.80;99.90
42245;DHT22;27912;51.828;5.688;2022-12-07T11:04:55;6.00;99.90
42245;DHT22;27912;51.828;5.688;2022-12-07T11:10:29;6.20;99.90
42245;DHT22;27912;51.828;5.688;2022-12-07T11:15:32;6.30;99.90
42245;DHT22;27912;51.828;5.688;2022-12-07T11:18:24;6.40;99.90
42245;DHT22;27912;51.828;5.688;2022-12-07T11:20:57;6.40;99.90
42245;DHT22;27912;51.828;5.688;2022-12-07T11:29:27;6.50;99.90
42245;DHT22;27912;51.828;5.688;2022-12-07T11:37:31;6.50;99.90
42245;DHT22;27912;51.828;5.688;2022-12-07T11:40:20;6.40;99.90
42245;DHT22;27912;51.828;5.688;2022-12-07T11:42:59;6.40;99.90
42245;DHT22;27912;51.828;5.688;2022-12-07T11:45:29;6.30;99.90
42245;DHT22;27912;51.828;5.688;2022-12-07T11:48:00;6.30;99.90
42245;DHT22;27912;51.828;5.688;2022-12-07T11:50:36;6.40;99.90
42245;DHT22;27912;51.828;5.688;2022-12-07T11:53:20;6.40;99.90
42245;DHT22;27912;51.828;5.688;2022-12-07T12:01:13;6.60;99.90
42245;DHT22;27912;51.828;5.688;2022-12-07T12:03:47;6.60;99.90
42245;DHT22;27912;51.828;5.688;2022-12-07T12:06:15;6.60;99.90
42245;DHT22;27912;51.828;5.688;2022-12-07T12:22:20;6.70;99.90
42245;DHT22;27912;51.828;5.688;2022-12-07T12:24:50;6.60;99.90
42245;DHT22;27912;51.828;5.688;2022-12-07T12:27:25;6.60;99.90
42245;DHT22;27912;51.828;5.688;2022-12-07T12:29:55;6.60;99.90
42245;DHT22;27912;51.828;5.688;2022-12-07T12:32:29;6.60;99.90
42245;DHT22;27912;51.828;5.688;2022-12-07T12:35:19;6.60;99.90
42245;DHT22;27912;51.828;5.688;2022-12-07T12:37:46;6.60;99.90
42245;DHT22;27912;51.828;5.688;2022-12-07T12:42:57;6.50;99.90
42245;DHT22;27912;51.828;5.688;2022-12-07T12:45:27;6.40;99.90
42245;DHT22;27912;51.828;5.688;2022-12-07T12:50:32;6.30;99.90
42245;DHT22;27912;51.828;5.688;2022-12-07T12:53:14;6.20;99.90
42245;DHT22;27912;51.828;5.688;2022-12-07T12:58:29;6.20;99.90
42245;DHT22;27912;51.828;5.688;2022-12-07T13:01:36;6.10;99.90
42245;DHT22;27912;51.828;5.688;2022-12-07T13:04:18;6.20;99.90
42245;DHT22;27912;51.828;5.688;2022-12-07T13:06:47;6.30;99.90
42245;DHT22;27912;51.828;5.688;2022-12-07T13:09:30;6.20;99.90
42245;DHT22;27912;51.828;5.688;2022-12-07T13:12:02;6.20;99.90
42245;DHT22;27912;51.828;5.688;2022-12-07T13:19:54;6.10;99.90
42245;DHT22;27912;51.828;5.688;2022-12-07T13:27:40;6.40;99.90
42245;DHT22;27912;51.828;5.688;2022-12-07T13:30:20;6.50;99.90
42245;DHT22;27912;51.828;5.688;2022-12-07T13:32:53;6.60;99.90
42245;DHT22;27912;51.828;5.688;2022-12-07T13:35:34;6.70;99.90
42245;DHT22;27912;51.828;5.688;2022-12-07T13:38:16;6.60;99.90
42245;DHT22;27912;51.828;5.688;2022-12-07T13:41:15;6.50;99.90
42245;DHT22;27912;51.828;5.688;2022-12-07T13:44:14;6.40;99.90
42245;DHT22;27912;51.828;5.688;2022-12-07T13:49:29;6.20;99.90
42245;DHT22;27912;51.828;5.688;2022-12-07T13:52:26;6.10;99.90
42245;DHT22;27912;51.828;5.688;2022-12-07T13:57:30;5.90;99.90
42245;DHT22;27912;51.828;5.688;2022-12-07T13:59:57;5.80;99.90
42245;DHT22;27912;51.828;5.688;2022-12-07T14:02:28;5.80;99.90
42245;DHT22;27912;51.828;5.688;2022-12-07T14:05:15;5.70;99.90
42245;DHT22;27912;51.828;5.688;2022-12-07T14:08:04;5.70;99.90
42245;DHT22;27912;51.828;5.688;2022-12-07T14:10:35;5.60;99.90
42245;DHT22;27912;51.828;5.688;2022-12-07T14:13:17;5.60;99.90
42245;DHT22;27912;51.828;5.688;2022-12-07T14:15:50;5.60;99.90
42245;DHT22;27912;51.828;5.688;2022-12-07T14:18:36;5.60;99.90
42245;DHT22;27912;51.828;5.688;2022-12-07T14:23:37;5.80;99.90
42245;DHT22;27912;51.828;5.688;2022-12-07T14:26:19;5.80;99.90
42245;DHT22;27912;51.828;5.688;2022-12-07T14:28:45;5.90;99.90
42245;DHT22;27912;51.828;5.688;2022-12-07T14:31:16;5.80;99.90
42245;DHT22;27912;51.828;5.688;2022-12-07T14:33:43;5.90;99.90
42245;DHT22;27912;51.828;5.688;2022-12-07T14:36:13;5.80;99.90
42245;DHT22;27912;51.828;5.688;2022-12-07T14:38:39;5.90;99.90
42245;DHT22;27912;51.828;5.688;2022-12-07T14:41:12;5.90;99.90
42245;DHT22;27912;51.828;5.688;2022-12-07T14:43:58;5.90;99.90
42245;DHT22;27912;51.828;5.688;2022-12-07T14:46:24;6.00;99.90
42245;DHT22;27912;51.828;5.688;2022-12-07T14:48:49;6.00;99.90
42245;DHT22;27912;51.828;5.688;2022-12-07T14:51:15;6.10;99.90
42245;DHT22;27912;51.828;5.688;2022-12-07T14:53:46;6.00;99.90
42245;DHT22;27912;51.828;5.688;2022-12-07T14:56:14;6.00;99.90
42245;DHT22;27912;51.828;5.688;2022-12-07T14:58:40;6.00;99.90
42245;DHT22;27912;51.828;5.688;2022-12-07T15:01:05;6.00;99.90
42245;DHT22;27912;51.828;5.688;2022-12-07T15:03:31;6.00;99.90
42245;DHT22;27912;51.828;5.688;2022-12-07T15:05:57;5.90;99.90
42245;DHT22;27912;51.828;5.688;2022-12-07T15:08:23;5.90;99.90
42245;DHT22;27912;51.828;5.688;2022-12-07T15:10:48;5.80;99.90
42245;DHT22;27912;51.828;5.688;2022-12-07T15:13:14;5.80;99.90
42245;DHT22;27912;51.828;5.688;2022-12-07T15:15:57;5.70;99.90
42245;DHT22;27912;51.828;5.688;2022-12-07T15:18:24;5.60;99.90
42245;DHT22;27912;51.828;5.688;2022-12-07T15:20:50;5.60;99.90
42245;DHT22;27912;51.828;5.688;2022-12-07T15:23:15;5.60;99.90
42245;DHT22;27912;51.828;5.688;2022-12-07T15:25:46;5.60;99.90
42245;DHT22;27912;51.828;5.688;2022-12-07T15:28:12;5.50;99.90
42245;DHT22;27912;51.828;5.688;2022-12-07T15:30:39;5.50;99.90
42245;DHT22;27912;51.828;5.688;2022-12-07T15:33:05;5.40;99.90
42245;DHT22;27912;51.828;5.688;2022-12-07T15:35:31;5.40;99.90
42245;DHT22;27912;51.828;5.688;2022-12-07T15:37:57;5.30;99.90
42245;DHT22;27912;51.828;5.688;2022-12-07T15:40:22;5.30;99.90
42245;DHT22;27912;51.828;5.688;2022-12-07T15:42:48;5.20;99.90
42245;DHT22;27912;51.828;5.688;2022-12-07T15:45:13;5.10;99.90
42245;DHT22;27912;51.828;5.688;2022-12-07T15:47:43;5.10;99.90
42245;DHT22;27912;51.828;5.688;2022-12-07T15:50:14;5.00;99.90
42245;DHT22;27912;51.828;5.688;2022-12-07T15:52:40;4.90;99.90
42245;DHT22;27912;51.828;5.688;2022-12-07T15:55:06;4.90;99.90
42245;DHT22;27912;51.828;5.688;2022-12-07T15:57:34;4.80;99.90
42245;DHT22;27912;51.828;5.688;2022-12-07T16:00:00;4.80;99.90
42245;DHT22;27912;51.828;5.688;2022-12-07T16:02:25;4.70;99.90
42245;DHT22;27912;51.828;5.688;2022-12-07T16:04:52;4.70;99.90
42245;DHT22;27912;51.828;5.688;2022-12-07T16:07:18;4.60;99.90
42245;DHT22;27912;51.828;5.688;2022-12-07T16:09:45;4.60;99.90
42245;DHT22;27912;51.828;5.688;2022-12-07T16:12:11;4.50;99.90
42245;DHT22;27912;51.828;5.688;2022-12-07T16:14:39;4.50;99.90
42245;DHT22;27912;51.828;5.688;2022-12-07T16:17:06;4.40;99.90
42245;DHT22;27912;51.828;5.688;2022-12-07T16:19:32;4.40;99.90
42245;DHT22;27912;51.828;5.688;2022-12-07T16:21:58;4.40;99.90
42245;DHT22;27912;51.828;5.688;2022-12-07T16:24:25;4.40;99.90
42245;DHT22;27912;51.828;5.688;2022-12-07T16:26:50;4.40;99.90
42245;DHT22;27912;51.828;5.688;2022-12-07T16:29:18;4.40;99.90
42245;DHT22;27912;51.828;5.688;2022-12-07T16:31:44;4.40;99.90
42245;DHT22;27912;51.828;5.688;2022-12-07T16:34:10;4.30;99.90
42245;DHT22;27912;51.828;5.688;2022-12-07T16:36:35;4.30;99.90
42245;DHT22;27912;51.828;5.688;2022-12-07T16:39:01;4.30;99.90
42245;DHT22;27912;51.828;5.688;2022-12-07T16:41:27;4.30;99.90
42245;DHT22;27912;51.828;5.688;2022-12-07T16:43:52;4.30;99.90
42245;DHT22;27912;51.828;5.688;2022-12-07T16:46:18;4.20;99.90
42245;DHT22;27912;51.828;5.688;2022-12-07T16:48:44;4.20;99.90
42245;DHT22;27912;51.828;5.688;2022-12-07T16:51:12;4.20;99.90
42245;DHT22;27912;51.828;5.688;2022-12-07T16:53:40;4.20;99.90
42245;DHT22;27912;51.828;5.688;2022-12-07T16:56:14;4.30;99.90
42245;DHT22;27912;51.828;5.688;2022-12-07T16:58:41;4.20;99.90
42245;DHT22;27912;51.828;5.688;2022-12-07T17:01:15;4.30;99.90
42245;DHT22;27912;51.828;5.688;2022-12-07T17:03:42;4.30;99.90
42245;DHT22;27912;51.828;5.688;2022-12-07T17:06:19;4.30;99.90
42245;DHT22;27912;51.828;5.688;2022-12-07T17:08:46;4.30;99.90
42245;DHT22;27912;51.828;5.688;2022-12-07T17:11:13;4.30;99.90
42245;DHT22;27912;51.828;5.688;2022-12-07T17:13:39;4.30;99.90
42245;DHT22;27912;51.828;5.688;2022-12-07T17:16:24;4.30;99.90
42245;DHT22;27912;51.828;5.688;2022-12-07T17:18:49;4.30;99.90
42245;DHT22;27912;51.828;5.688;2022-12-07T17:21:15;4.30;99.90
42245;DHT22;27912;51.828;5.688;2022-12-07T17:23:41;4.30;99.90
42245;DHT22;27912;51.828;5.688;2022-12-07T17:26:15;4.30;99.90
42245;DHT22;27912;51.828;5.688;2022-12-07T17:28:42;4.30;99.90
42245;DHT22;27912;51.828;5.688;2022-12-07T17:31:09;4.20;99.90
42245;DHT22;27912;51.828;5.688;2022-12-07T17:33:35;4.20;99.90
42245;DHT22;27912;51.828;5.688;2022-12-07T17:36:01;4.30;99.90
42245;DHT22;27912;51.828;5.688;2022-12-07T17:38:34;4.30;99.90
42245;DHT22;27912;51.828;5.688;2022-12-07T17:40:59;4.30;99.90
42245;DHT22;27912;51.828;5.688;2022-12-07T17:43:25;4.30;99.90
42245;DHT22;27912;51.828;5.688;2022-12-07T17:45:50;4.40;99.90
42245;DHT22;27912;51.828;5.688;2022-12-07T17:48:16;4.40;99.90
42245;DHT22;27912;51.828;5.688;2022-12-07T17:50:41;4.40;99.90
42245;DHT22;27912;51.828;5.688;2022-12-07T17:53:26;4.40;99.90
42245;DHT22;27912;51.828;5.688;2022-12-07T17:55:55;4.30;99.90